Time;durP1;ratioP1;P1;durP2;ratioP2;P2;SDS_P1;SDS_P2;PMS_P1;PMS_P2;Temp;Humidity;BMP_temperature;BMP_pressure;BME280_temperature;BME280_humidity;BME280_pressure;Samples;Min_cycle;Max_cycle;Signal;HPM_P1;HPM_P2
2022/03/14 00:01:14;;;;;;;37.80;15.52;;;;;;;-1.17;44.48;95076.53;5042712;28;20219;-81
2022/03/14 00:03:50;;;;;;;39.20;15.23;;;;;;;-1.14;44.72;95076.13;5042433;28;20025;-81
2022/03/14 00:06:17;;;;;;;30.70;13.38;;;;;;;-1.19;45.49;95075.94;5042681;28;20060;-81
2022/03/14 00:08:44;;;;;;;32.50;14.85;;;;;;;-1.24;45.70;95078.41;5042640;28;20069;-81
2022/03/14 00:11:10;;;;;;;36.97;14.55;;;;;;;-1.23;46.80;95069.53;5042275;28;20052;-81
2022/03/14 00:13:37;;;;;;;35.67;13.75;;;;;;;-1.27;47.09;95076.97;5042393;28;20033;-81
2022/03/14 00:16:03;;;;;;;48.45;15.43;;;;;;;-1.36;46.69;95085.28;5042336;28;20096;-82
2022/03/14 00:18:31;;;;;;;34.13;13.63;;;;;;;-1.40;46.94;95071.84;5042126;28;20025;-82
2022/03/14 00:20:57;;;;;;;40.53;15.55;;;;;;;-1.37;47.00;95083.69;5042204;28;20018;-82
2022/03/14 00:23:22;;;;;;;35.67;15.48;;;;;;;-1.38;47.17;95082.88;5042390;28;20068;-81
2022/03/14 00:25:49;;;;;;;40.28;16.75;;;;;;;-1.39;47.54;95080.47;5042241;28;20021;-79
2022/03/14 00:28:15;;;;;;;35.17;14.98;;;;;;;-1.45;47.31;95084.72;5042163;28;20032;-82
2022/03/14 00:30:40;;;;;;;41.38;16.30;;;;;;;-1.53;47.75;95077.91;5024358;28;20049;-80
2022/03/14 00:33:06;;;;;;;38.88;15.48;;;;;;;-1.57;47.46;95084.56;5042090;28;20112;-82
2022/03/14 00:35:32;;;;;;;37.67;15.43;;;;;;;-1.60;48.01;95084.19;5042223;28;20029;-82
2022/03/14 00:37:58;;;;;;;41.38;14.80;;;;;;;-1.63;47.78;95091.44;5042033;28;20141;-81
2022/03/14 00:40:24;;;;;;;43.60;14.52;;;;;;;-1.63;47.89;95090.59;5045022;28;20032;-82
2022/03/14 00:42:50;;;;;;;41.88;16.33;;;;;;;-1.70;48.14;95089.84;5045971;28;20025;-81
2022/03/14 00:45:15;;;;;;;46.80;17.88;;;;;;;-1.73;48.45;95093.69;5046019;28;20335;-82
2022/03/14 00:47:41;;;;;;;41.58;18.02;;;;;;;-1.72;49.30;95097.09;5045768;28;20041;-81
2022/03/14 00:50:07;;;;;;;38.25;16.67;;;;;;;-1.76;49.60;95093.28;5045708;28;20057;-81
2022/03/14 00:52:33;;;;;;;33.45;14.73;;;;;;;-1.86;48.98;95091.88;5045890;28;20235;-81
2022/03/14 00:54:58;;;;;;;32.83;14.60;;;;;;;-1.89;48.85;95101.97;5045879;28;20132;-82
2022/03/14 00:57:24;;;;;;;36.60;14.60;;;;;;;-1.89;48.14;95097.53;5045580;28;20041;-80
2022/03/14 00:59:50;;;;;;;34.00;14.52;;;;;;;-1.88;48.53;95104.34;5045648;28;20013;-82
2022/03/14 01:02:15;;;;;;;37.67;15.27;;;;;;;-1.88;48.35;95103.56;5045697;28;20282;-82
2022/03/14 01:04:41;;;;;;;34.50;14.85;;;;;;;-1.85;48.32;95101.34;5045587;28;20038;-81
2022/03/14 01:07:06;;;;;;;38.30;15.73;;;;;;;-1.85;48.59;95103.97;5045360;28;20179;-80
2022/03/14 01:09:33;;;;;;;45.60;16.98;;;;;;;-1.88;48.49;95103.56;5027650;28;20033;-80
2022/03/14 01:11:59;;;;;;;36.75;15.13;;;;;;;-1.92;48.57;95110.19;5045485;28;20048;-81
2022/03/14 01:14:25;;;;;;;35.17;15.73;;;;;;;-1.93;49.11;95111.22;5045258;28;20025;-80
2022/03/14 01:16:51;;;;;;;33.10;13.70;;;;;;;-1.97;48.98;95116.03;5027548;28;20453;-80
2022/03/14 01:19:17;;;;;;;42.08;16.52;;;;;;;-2.04;49.34;95115.25;5045304;28;20048;-81
2022/03/14 01:21:42;;;;;;;41.55;15.63;;;;;;;-2.07;49.76;95123.50;5027753;28;20018;-81
2022/03/14 01:24:08;;;;;;;49.33;16.45;;;;;;;-2.14;49.76;95115.66;5045165;28;20132;-81
2022/03/14 01:26:34;;;;;;;50.72;19.75;;;;;;;-2.21;50.17;95117.47;5045039;28;20025;-81
2022/03/14 01:29:01;;;;;;;59.45;20.33;;;;;;;-2.18;50.68;95113.66;5045074;28;20032;-82
2022/03/14 01:31:26;;;;;;;56.28;20.42;;;;;;;-2.26;50.63;95123.31;5044896;28;20075;-82
2022/03/14 01:33:52;;;;;;;50.30;20.80;;;;;;;-2.31;50.76;95122.31;5044990;28;20266;-82
2022/03/14 01:36:18;;;;;;;54.40;22.13;;;;;;;-2.29;51.10;95123.72;5045020;28;20311;-82
2022/03/14 01:38:43;;;;;;;60.97;23.17;;;;;;;-2.30;51.08;95122.13;5044883;28;20347;-82
2022/03/14 01:41:10;;;;;;;62.78;22.52;;;;;;;-2.32;51.24;95118.91;5044932;28;20051;-82
2022/03/14 01:43:36;;;;;;;58.30;23.20;;;;;;;-2.33;51.31;95117.28;5044558;28;20032;-82
2022/03/14 01:46:01;;;;;;;60.65;22.25;;;;;;;-2.32;51.63;95134.56;5044779;28;20025;-82
2022/03/14 01:48:27;;;;;;;59.47;19.95;;;;;;;-2.37;51.39;95129.13;5026929;28;20017;-81
2022/03/14 01:50:53;;;;;;;52.35;22.05;;;;;;;-2.40;51.55;95128.72;5043414;28;20337;-81
2022/03/14 01:53:19;;;;;;;43.47;18.35;;;;;;;-2.47;51.42;95126.13;5044646;28;20338;-82
2022/03/14 01:55:47;;;;;;;51.63;17.85;;;;;;;-2.47;50.86;95132.13;5044803;28;20056;-82
2022/03/14 01:58:13;;;;;;;53.95;20.20;;;;;;;-2.45;50.31;95134.56;5044279;28;20033;-82
2022/03/14 02:00:39;;;;;;;51.47;19.13;;;;;;;-2.43;50.08;95135.94;5044446;28;20014;-81
2022/03/14 02:03:05;;;;;;;49.88;19.40;;;;;;;-2.40;49.67;95131.34;5044405;28;20024;-81
2022/03/14 02:05:32;;;;;;;54.45;19.85;;;;;;;-2.43;50.01;95132.53;5044404;28;20021;-80
2022/03/14 02:07:58;;;;;;;62.10;20.55;;;;;;;-2.43;50.42;95143.00;5044228;28;20018;-80
2022/03/14 02:10:23;;;;;;;68.32;22.00;;;;;;;-2.44;50.42;95142.19;5044070;28;20033;-79
2022/03/14 02:12:49;;;;;;;72.60;21.88;;;;;;;-2.47;50.88;95144.41;5044284;28;20017;-80
2022/03/14 02:15:14;;;;;;;66.15;22.08;;;;;;;-2.48;51.53;95145.41;5044377;28;20320;-80
2022/03/14 02:17:40;;;;;;;74.25;22.45;;;;;;;-2.50;51.74;95147.41;5044073;28;20088;-79
2022/03/14 02:20:06;;;;;;;78.15;23.88;;;;;;;-2.59;51.59;95149.41;5044096;28;20029;-80
2022/03/14 02:22:31;;;;;;;75.05;21.92;;;;;;;-2.58;51.47;95145.81;5043935;28;20374;-80
2022/03/14 02:24:57;;;;;;;58.95;19.02;;;;;;;-2.57;50.92;95157.03;5042882;28;20021;-80
2022/03/14 02:27:22;;;;;;;64.90;18.55;;;;;;;-2.64;50.97;95147.38;5044035;28;20017;-79
2022/03/14 02:29:48;;;;;;;74.15;21.35;;;;;;;-2.62;51.15;95161.03;5044217;28;20044;-79
2022/03/14 02:32:13;;;;;;;70.80;21.05;;;;;;;-2.63;51.21;95169.91;5043627;28;20017;-80
2022/03/14 02:34:40;;;;;;;74.43;22.23;;;;;;;-2.63;51.13;95163.84;5043736;28;20093;-80
2022/03/14 02:37:06;;;;;;;69.70;22.55;;;;;;;-2.60;51.09;95173.13;5043742;28;20215;-79
2022/03/14 02:39:32;;;;;;;47.95;16.30;;;;;;;-2.59;50.91;95177.31;5043536;28;20044;-80
2022/03/14 02:41:59;;;;;;;41.05;16.27;;;;;;;-2.59;50.88;95174.72;5043580;28;20021;-79
2022/03/14 02:44:25;;;;;;;32.28;13.05;;;;;;;-2.58;50.55;95168.50;5043715;28;20040;-81
2022/03/14 02:46:51;;;;;;;34.70;13.68;;;;;;;-2.60;50.66;95176.53;5043742;28;20021;-78
2022/03/14 02:49:16;;;;;;;29.05;11.57;;;;;;;-2.53;50.90;95176.53;5043476;28;20021;-79
2022/03/14 02:51:42;;;;;;;32.35;11.20;;;;;;;-2.50;50.78;95189.19;5043480;28;20028;-80
2022/03/14 02:54:09;;;;;;;25.40;11.10;;;;;;;-2.51;50.50;95188.38;5043349;28;20342;-81
2022/03/14 02:56:38;;;;;;;31.13;10.82;;;;;;;-2.50;50.48;95184.75;5043275;28;20047;-81
2022/03/14 02:59:06;;;;;;;30.85;12.65;;;;;;;-2.46;49.94;95195.63;5043182;28;20021;-81
2022/03/14 03:01:33;;;;;;;39.42;14.65;;;;;;;-2.49;50.09;95196.81;5043079;28;20043;-81
2022/03/14 03:03:58;;;;;;;43.28;13.63;;;;;;;-2.52;50.12;95197.22;5043082;28;20026;-81
2022/03/14 03:06:24;;;;;;;32.03;13.38;;;;;;;-2.47;49.58;95200.03;5043123;28;20017;-81
2022/03/14 03:08:54;;;;;;;30.63;11.50;;;;;;;-2.46;49.54;95203.47;5043260;28;20096;-80
2022/03/14 03:11:22;;;;;;;45.97;13.57;;;;;;;-2.51;49.99;95200.63;5043205;28;20422;-81
2022/03/14 03:13:49;;;;;;;34.58;12.65;;;;;;;-2.50;50.55;95203.03;5043352;28;20251;-81
2022/03/14 03:16:16;;;;;;;36.72;13.65;;;;;;;-2.52;49.55;95209.47;5043041;28;20227;-81
2022/03/14 03:18:43;;;;;;;38.58;14.23;;;;;;;-2.58;49.98;95197.22;5042963;28;20032;-80
2022/03/14 03:21:09;;;;;;;36.53;13.65;;;;;;;-2.58;49.89;95207.66;5042973;28;20029;-80
2022/03/14 03:23:35;;;;;;;34.63;13.63;;;;;;;-2.64;50.65;95204.81;5042994;28;20032;-80
2022/03/14 03:26:02;;;;;;;33.97;12.90;;;;;;;-2.64;51.17;95215.25;5041729;28;20029;-80
2022/03/14 03:28:28;;;;;;;25.60;11.68;;;;;;;-2.66;51.00;95211.25;5042962;28;20204;-80
2022/03/14 03:30:53;;;;;;;27.98;11.05;;;;;;;-2.70;51.42;95220.47;5042683;28;20021;-80
2022/03/14 03:33:19;;;;;;;25.88;11.57;;;;;;;-2.78;51.90;95215.44;5042845;28;20057;-81
2022/03/14 03:35:45;;;;;;;22.95;10.13;;;;;;;-2.73;51.71;95223.47;5042748;28;20036;-81
2022/03/14 03:38:10;;;;;;;30.52;12.73;;;;;;;-2.74;51.34;95225.28;5042753;28;20100;-80
2022/03/14 03:40:35;;;;;;;31.90;12.75;;;;;;;-2.71;50.64;95218.84;5042654;28;20391;-80
2022/03/14 03:43:01;;;;;;;36.45;14.52;;;;;;;-2.72;50.82;95225.88;5042735;28;20312;-80
2022/03/14 03:45:27;;;;;;;35.90;13.85;;;;;;;-2.72;51.30;95228.50;5042727;28;20040;-80
2022/03/14 03:47:54;;;;;;;34.00;14.65;;;;;;;-2.74;50.94;95230.50;5042435;28;20028;-80
2022/03/14 03:50:21;;;;;;;37.65;13.98;;;;;;;-2.75;51.07;95225.47;5042675;28;20231;-79
2022/03/14 03:52:46;;;;;;;35.58;15.05;;;;;;;-2.77;51.12;95230.88;5042634;28;20025;-79
2022/03/14 03:55:12;;;;;;;36.25;15.48;;;;;;;-2.79;51.56;95239.91;5042527;28;20028;-81
2022/03/14 03:57:37;;;;;;;36.22;15.48;;;;;;;-2.83;51.97;95232.47;5024741;28;20316;-81
2022/03/14 04:00:04;;;;;;;44.97;16.42;;;;;;;-2.89;51.95;95240.25;5042607;28;20032;-81
2022/03/14 04:02:36;;;;;;;37.33;15.73;;;;;;;-2.89;52.20;95229.81;5042319;28;20022;-80
2022/03/14 04:05:02;;;;;;;40.47;16.40;;;;;;;-2.90;52.38;95236.06;5042535;28;20026;-80
2022/03/14 04:07:30;;;;;;;39.22;17.15;;;;;;;-2.93;52.49;95239.88;5042278;28;20029;-81
2022/03/14 04:09:57;;;;;;;35.72;17.63;;;;;;;-2.96;52.71;95249.88;5042321;28;20025;-81
2022/03/14 04:12:25;;;;;;;39.60;17.52;;;;;;;-2.98;52.54;95246.66;5042429;28;20095;-81
2022/03/14 04:14:51;;;;;;;37.97;16.00;;;;;;;-3.00;52.79;95252.06;5044606;28;20213;-81
2022/03/14 04:17:18;;;;;;;38.28;15.70;;;;;;;-3.05;52.84;95249.25;5046387;28;20204;-82
2022/03/14 04:19:44;;;;;;;37.85;17.00;;;;;;;-3.10;52.88;95252.41;5046403;28;20024;-80
2022/03/14 04:22:11;;;;;;;42.42;17.42;;;;;;;-3.06;53.20;95258.84;5028522;28;20021;-80
2022/03/14 04:24:37;;;;;;;44.80;17.33;;;;;;;-3.06;52.83;95258.06;5046318;28;20021;-80
2022/03/14 04:27:03;;;;;;;44.38;16.88;;;;;;;-3.12;52.75;95262.25;5046038;28;20063;-80
2022/03/14 04:29:29;;;;;;;40.35;17.17;;;;;;;-3.08;52.74;95263.47;5046206;28;20029;-80
2022/03/14 04:31:55;;;;;;;40.47;15.68;;;;;;;-3.06;52.75;95266.69;5046237;28;20368;-80
2022/03/14 04:34:21;;;;;;;40.38;16.77;;;;;;;-3.06;52.73;95263.28;5045976;28;20331;-80
2022/03/14 04:36:50;;;;;;;47.38;17.83;;;;;;;-3.08;52.68;95278.31;5045782;28;20021;-81
2022/03/14 04:39:20;;;;;;;43.63;17.92;;;;;;;-3.06;52.81;95274.50;5046258;28;20017;-82
2022/03/14 04:41:46;;;;;;;42.33;16.98;;;;;;;-3.06;52.54;95284.16;5046372;28;20088;-82
2022/03/14 04:44:11;;;;;;;41.97;17.10;;;;;;;-3.08;52.90;95283.53;5045892;28;20262;-82
2022/03/14 04:46:37;;;;;;;40.17;15.70;;;;;;;-3.10;53.15;95280.31;5045555;28;20022;-81
2022/03/14 04:49:08;;;;;;;34.28;14.70;;;;;;;-3.13;52.85;95299.75;5045765;28;20021;-81
2022/03/14 04:51:34;;;;;;;43.03;16.23;;;;;;;-3.19;53.36;95289.31;5045704;28;20029;-82
2022/03/14 04:54:00;;;;;;;30.30;13.75;;;;;;;-3.19;53.29;95295.31;5045661;28;20060;-80
2022/03/14 04:56:25;;;;;;;33.78;14.85;;;;;;;-3.16;53.29;95296.72;5045599;28;20025;-80
2022/03/14 04:58:51;;;;;;;36.45;14.75;;;;;;;-3.19;53.51;95310.16;5045696;28;20028;-81
2022/03/14 05:01:20;;;;;;;27.92;14.07;;;;;;;-3.18;53.71;95309.16;5045675;28;20222;-81
2022/03/14 05:03:45;;;;;;;36.25;14.27;;;;;;;-3.12;53.60;95322.22;5045384;28;20026;-77
2022/03/14 05:06:11;;;;;;;32.58;14.32;;;;;;;-3.10;53.11;95324.66;5045383;28;20034;-80
2022/03/14 05:08:37;;;;;;;35.42;13.15;;;;;;;-3.17;53.02;95324.63;5045187;28;20036;-80
2022/03/14 05:11:04;;;;;;;32.58;15.05;;;;;;;-3.19;53.45;95328.44;5045230;28;20025;-80
2022/03/14 05:13:30;;;;;;;41.30;16.17;;;;;;;-3.20;54.07;95338.03;5045352;28;20080;-80
2022/03/14 05:15:56;;;;;;;39.63;15.82;;;;;;;-3.16;54.04;95334.03;5045127;28;20128;-80
2022/03/14 05:18:22;;;;;;;40.15;17.73;;;;;;;-3.10;54.14;95337.69;5045321;28;20197;-80
2022/03/14 05:20:47;;;;;;;39.25;16.05;;;;;;;-3.01;54.26;95344.38;5045239;28;20017;-81
2022/03/14 05:23:13;;;;;;;42.75;16.73;;;;;;;-2.94;54.29;95336.59;5045036;28;20025;-81
2022/03/14 05:25:38;;;;;;;42.08;16.70;;;;;;;-2.84;53.84;95343.06;5044682;28;20337;-80
2022/03/14 05:28:04;;;;;;;43.65;16.58;;;;;;;-2.80;53.76;95348.72;5045083;28;20094;-81
2022/03/14 05:30:29;;;;;;;43.35;18.55;;;;;;;-2.74;53.84;95350.53;5044774;28;20029;-80
2022/03/14 05:32:55;;;;;;;43.17;19.10;;;;;;;-2.65;53.64;95353.78;5044622;28;20041;-80
2022/03/14 05:35:21;;;;;;;40.38;18.08;;;;;;;-2.57;53.77;95361.47;5044761;28;20103;-80
2022/03/14 05:37:47;;;;;;;46.90;18.70;;;;;;;-2.49;53.93;95361.28;5044620;28;20013;-80
2022/03/14 05:40:15;;;;;;;50.83;21.60;;;;;;;-2.43;53.96;95367.53;5044801;28;20213;-79
2022/03/14 05:42:42;;;;;;;49.58;19.98;;;;;;;-2.40;53.78;95371.56;5044662;28;20096;-79
2022/03/14 05:45:08;;;;;;;48.42;20.17;;;;;;;-2.38;53.70;95373.00;5044414;28;20025;-79
2022/03/14 05:47:35;;;;;;;48.35;21.13;;;;;;;-2.31;53.96;95370.41;5044481;28;20076;-80
2022/03/14 05:50:01;;;;;;;44.35;19.67;;;;;;;-2.27;53.88;95371.63;5044435;28;20025;-80
2022/03/14 05:52:27;;;;;;;47.17;19.98;;;;;;;-2.27;53.70;95375.03;5044519;28;20039;-79
2022/03/14 05:54:52;;;;;;;44.05;21.20;;;;;;;-2.29;53.79;95381.47;5044361;28;20040;-79
2022/03/14 05:57:18;;;;;;;47.42;20.77;;;;;;;-2.28;53.92;95378.66;5044433;28;20017;-80
2022/03/14 05:59:43;;;;;;;58.45;22.60;;;;;;;-2.30;53.91;95378.06;5026926;28;20096;-80
2022/03/14 06:02:10;;;;;;;52.25;22.05;;;;;;;-2.27;54.24;95376.84;5044263;28;20044;-80
2022/03/14 06:04:35;;;;;;;43.28;21.52;;;;;;;-2.26;53.99;95392.34;5044225;28;20021;-82
2022/03/14 06:07:01;;;;;;;51.13;21.60;;;;;;;-2.29;54.13;95379.66;5026787;28;20316;-81
2022/03/14 06:09:28;;;;;;;53.95;21.67;;;;;;;-2.22;53.78;95385.72;5044108;28;20311;-81
2022/03/14 06:11:54;;;;;;;57.03;22.92;;;;;;;-2.18;53.66;95378.28;5044161;28;20271;-82
2022/03/14 06:14:20;;;;;;;57.13;21.45;;;;;;;-2.19;54.05;95391.56;5044340;28;20017;-82
2022/03/14 06:16:45;;;;;;;52.08;21.73;;;;;;;-2.10;53.83;95395.59;5044139;28;20026;-83
2022/03/14 06:19:11;;;;;;;62.65;24.13;;;;;;;-2.03;53.65;95388.59;5044032;28;20048;-82
2022/03/14 06:21:38;;;;;;;58.60;22.17;;;;;;;-1.92;53.71;95395.03;5043742;28;20136;-82
2022/03/14 06:24:05;;;;;;;52.13;21.67;;;;;;;-1.85;53.25;95395.88;5043924;28;20017;-82
2022/03/14 06:26:34;;;;;;;47.63;21.10;;;;;;;-1.73;53.06;95401.31;5043942;28;20017;-82
2022/03/14 06:29:00;;;;;;;50.50;22.83;;;;;;;-1.66;52.25;95400.34;5043798;28;20033;-83
2022/03/14 06:31:25;;;;;;;59.83;22.42;;;;;;;-1.61;52.31;95410.19;5043420;28;20033;-82
2022/03/14 06:33:51;;;;;;;54.67;22.63;;;;;;;-1.52;52.11;95411.63;5043386;28;20270;-82
2022/03/14 06:36:16;;;;;;;47.53;22.42;;;;;;;-1.44;51.97;95403.59;5043355;28;20032;-82
2022/03/14 06:38:42;;;;;;;55.80;23.45;;;;;;;-1.35;52.13;95412.03;5043185;28;20037;-82
2022/03/14 06:41:10;;;;;;;57.85;21.60;;;;;;;-1.24;51.33;95414.06;5043531;28;20084;-81
2022/03/14 06:43:35;;;;;;;56.80;24.02;;;;;;;-1.22;51.46;95421.72;5043322;28;20036;-82
2022/03/14 06:46:02;;;;;;;56.08;21.33;;;;;;;-1.14;51.24;95421.53;5043291;28;20319;-82
2022/03/14 06:48:27;;;;;;;70.15;23.85;;;;;;;-1.05;50.98;95425.53;5043114;28;20053;-82
2022/03/14 06:50:53;;;;;;;64.63;22.20;;;;;;;-1.01;50.37;95426.75;5043071;28;20040;-82
2022/03/14 06:53:18;;;;;;;64.85;24.23;;;;;;;-0.92;50.23;95427.31;5043566;28;20491;-82
2022/03/14 06:55:44;;;;;;;65.45;23.95;;;;;;;-0.84;49.92;95429.72;5043117;28;20228;-81
2022/03/14 06:58:09;;;;;;;62.33;23.35;;;;;;;-0.84;49.34;95439.41;5043500;28;20041;-82
2022/03/14 07:00:34;;;;;;;56.83;21.98;;;;;;;-0.76;49.30;95435.78;5043214;28;20034;-82
2022/03/14 07:03:00;;;;;;;54.55;22.67;;;;;;;-0.67;48.91;95438.00;5043299;28;20342;-82
2022/03/14 07:05:26;;;;;;;56.67;21.60;;;;;;;-0.65;47.99;95441.22;5043126;28;20265;-82
2022/03/14 07:07:53;;;;;;;42.33;19.85;;;;;;;-0.56;46.95;95446.25;5025650;28;20100;-82
2022/03/14 07:10:18;;;;;;;58.22;23.25;;;;;;;-0.48;46.97;95441.56;5043156;28;20029;-82
2022/03/14 07:12:46;;;;;;;44.85;21.48;;;;;;;-0.39;47.03;95447.41;5042954;28;20159;-82
2022/03/14 07:15:17;;;;;;;44.20;20.15;;;;;;;-0.37;46.43;95442.75;5025430;28;20220;-81
2022/03/14 07:17:43;;;;;;;44.63;20.08;;;;;;;-0.29;45.52;95446.97;5042902;28;20021;-81
2022/03/14 07:20:10;;;;;;;50.15;20.08;;;;;;;-0.25;45.26;95448.97;5043052;28;20148;-81
2022/03/14 07:22:57;;;;;;;52.08;21.40;;;;;;;-0.25;46.04;95443.72;5042892;28;20025;-81
2022/03/14 07:25:28;;;;;;;51.38;22.55;;;;;;;-0.07;45.47;95447.50;5043007;28;20033;-80
2022/03/14 07:27:55;;;;;;;48.90;21.33;;;;;;;0.03;45.59;95445.25;5042828;28;20250;-80
2022/03/14 07:30:21;;;;;;;42.40;20.83;;;;;;;0.08;44.93;95448.06;5043005;28;20029;-81
2022/03/14 07:32:46;;;;;;;42.60;19.38;;;;;;;0.15;43.98;95448.84;5042288;28;20037;-80
2022/03/14 07:35:13;;;;;;;46.10;20.05;;;;;;;0.22;43.63;95442.75;5042282;28;20023;-81
2022/03/14 07:37:39;;;;;;;42.50;18.30;;;;;;;0.23;42.89;95454.88;5042517;28;20224;-81
2022/03/14 07:40:06;;;;;;;43.00;19.10;;;;;;;0.25;42.90;95448.41;5042126;28;20018;-80
2022/03/14 07:42:32;;;;;;;41.80;19.75;;;;;;;0.31;43.12;95458.03;5024543;28;20025;-80
2022/03/14 07:44:57;;;;;;;40.65;19.27;;;;;;;0.34;43.06;95462.06;5042361;28;20064;-80
2022/03/14 07:47:24;;;;;;;43.35;21.08;;;;;;;0.42;43.09;95461.81;5042710;28;20201;-80
2022/03/14 07:49:50;;;;;;;51.40;19.63;;;;;;;0.54;43.14;95451.47;5024956;28;20034;-81
2022/03/14 07:52:15;;;;;;;62.72;20.48;;;;;;;0.70;43.54;95456.22;5042510;28;20057;-80
2022/03/14 07:54:41;;;;;;;47.75;22.13;;;;;;;0.77;43.98;95454.38;5025042;28;20021;-80
2022/03/14 07:57:06;;;;;;;45.38;19.58;;;;;;;0.90;43.71;95450.84;5042727;28;20018;-80
2022/03/14 07:59:31;;;;;;;46.28;19.65;;;;;;;1.04;43.46;95450.72;5042512;28;20319;-82
2022/03/14 08:01:57;;;;;;;43.97;21.02;;;;;;;1.16;43.35;95443.75;5042152;28;20029;-82
2022/03/14 08:04:23;;;;;;;52.92;20.02;;;;;;;1.36;43.03;95448.84;5042658;28;20188;-79
2022/03/14 08:06:49;;;;;;;49.40;20.90;;;;;;;1.50;42.84;95450.31;5042426;28;20030;-80
2022/03/14 08:09:15;;;;;;;48.25;20.08;;;;;;;1.65;42.37;95451.78;5042280;28;20034;-80
2022/03/14 08:11:41;;;;;;;53.53;19.92;;;;;;;1.82;41.94;95441.53;5041903;28;20177;-80
2022/03/14 08:14:07;;;;;;;48.13;18.02;;;;;;;2.00;42.06;95438.91;5042431;28;20025;-80
2022/03/14 08:16:33;;;;;;;56.22;20.77;;;;;;;2.17;41.54;95445.16;5042357;28;20108;-80
2022/03/14 08:18:58;;;;;;;43.67;22.17;;;;;;;2.29;41.06;95457.56;5042341;28;20021;-80
2022/03/14 08:21:23;;;;;;;63.00;21.60;;;;;;;2.44;40.53;95457.97;5042362;28;20028;-80
2022/03/14 08:23:50;;;;;;;45.63;20.33;;;;;;;2.57;40.36;95455.16;5042086;28;20204;-80
2022/03/14 08:26:15;;;;;;;38.72;19.27;;;;;;;2.70;40.43;95445.47;5042266;28;20040;-80
2022/03/14 08:28:43;;;;;;;46.70;21.27;;;;;;;2.75;40.33;95456.97;5042542;28;20052;-80
2022/03/14 08:31:09;;;;;;;42.50;20.10;;;;;;;2.81;40.66;95456.06;5041937;28;20075;-77
2022/03/14 08:33:39;;;;;;;49.08;22.67;;;;;;;2.82;40.90;95456.84;5024336;28;20067;-80
2022/03/14 08:36:06;;;;;;;49.22;21.13;;;;;;;2.90;39.62;95453.91;5042075;28;20223;-80
2022/03/14 08:38:32;;;;;;;47.08;21.20;;;;;;;2.97;40.11;95451.16;5042208;28;20067;-80
2022/03/14 08:40:57;;;;;;;39.95;19.48;;;;;;;3.05;40.00;95450.81;5042109;28;20049;-82
2022/03/14 08:43:23;;;;;;;46.80;20.70;;;;;;;3.13;40.23;95460.25;5024587;28;20045;-84
2022/03/14 08:45:49;;;;;;;55.40;22.92;;;;;;;3.23;40.42;95452.56;5041884;28;20025;-78
2022/03/14 08:48:14;;;;;;;47.17;20.90;;;;;;;3.14;39.36;95462.66;5042152;28;20026;-78
2022/03/14 08:50:41;;;;;;;50.38;20.80;;;;;;;3.29;39.57;95462.22;5040978;28;20243;-78
2022/03/14 08:53:07;;;;;;;54.42;20.02;;;;;;;3.39;39.76;95456.38;5041783;28;20049;-77
2022/03/14 08:55:33;;;;;;;41.53;16.20;;;;;;;3.55;38.50;95458.34;5041933;28;20041;-78
2022/03/14 08:57:58;;;;;;;36.33;15.18;;;;;;;3.63;38.28;95457.19;5041646;28;20033;-78
2022/03/14 09:00:24;;;;;;;34.38;17.05;;;;;;;3.76;38.45;95451.66;5043039;28;20032;-78
2022/03/14 09:02:50;;;;;;;39.92;15.57;;;;;;;3.90;37.80;95460.16;5045492;28;20036;-78
2022/03/14 09:05:16;;;;;;;36.55;14.85;;;;;;;4.04;37.35;95450.16;5045327;28;20319;-78
2022/03/14 09:07:42;;;;;;;32.83;15.32;;;;;;;4.15;37.43;95444.06;5045246;28;20191;-78
2022/03/14 09:10:11;;;;;;;39.50;14.27;;;;;;;4.30;37.41;95445.38;5045401;28;20029;-78
2022/03/14 09:12:42;;;;;;;29.13;12.55;;;;;;;4.41;36.36;95439.25;5045262;28;20070;-78
2022/03/14 09:15:09;;;;;;;25.20;11.00;;;;;;;4.48;36.11;95442.56;5045010;28;20029;-78
2022/03/14 09:17:44;;;;;;;19.73;8.45;;;;;;;4.58;35.64;95434.84;5045215;28;20216;-78
2022/03/14 09:20:10;;;;;;;22.90;8.45;;;;;;;4.69;34.92;95446.38;5044875;28;20025;-77
2022/03/14 09:22:37;;;;;;;27.13;8.02;;;;;;;4.77;34.83;95437.28;5045060;28;20335;-78
2022/03/14 09:25:02;;;;;;;12.38;6.30;;;;;;;4.85;34.28;95431.59;5045090;28;20311;-78
2022/03/14 09:27:28;;;;;;;14.68;6.63;;;;;;;4.93;33.57;95428.56;5045246;28;20033;-78
2022/03/14 09:29:54;;;;;;;17.08;7.32;;;;;;;5.06;33.22;95437.22;5045333;28;20036;-78
2022/03/14 09:32:20;;;;;;;25.23;7.35;;;;;;;5.14;33.76;95432.34;5045006;28;20025;-78
2022/03/14 09:34:45;;;;;;;14.10;6.30;;;;;;;5.22;33.33;95439.88;5044815;28;20236;-78
2022/03/14 09:37:10;;;;;;;12.82;6.28;;;;;;;5.30;33.05;95443.97;5045049;28;20025;-79
2022/03/14 09:39:36;;;;;;;11.73;5.82;;;;;;;5.32;31.90;95441.88;5045156;28;20025;-78
2022/03/14 09:42:02;;;;;;;10.55;4.90;;;;;;;5.38;32.12;95438.28;5027073;28;20064;-79
2022/03/14 09:44:29;;;;;;;10.98;4.38;;;;;;;5.45;31.91;95447.88;5044936;28;20276;-78
2022/03/14 09:46:59;;;;;;;10.35;5.28;;;;;;;5.54;31.54;95444.59;5045085;28;20111;-79
2022/03/14 09:49:26;;;;;;;20.50;6.15;;;;;;;5.56;30.94;95449.66;5044926;28;20025;-78
2022/03/14 09:51:54;;;;;;;16.85;5.88;;;;;;;5.58;31.31;95447.56;5045273;28;20021;-77
2022/03/14 09:54:21;;;;;;;9.57;4.93;;;;;;;5.63;31.70;95442.34;5044740;28;20024;-76
2022/03/14 09:56:47;;;;;;;14.13;4.63;;;;;;;5.74;30.83;95433.53;5044633;28;20045;-76
2022/03/14 09:59:14;;;;;;;11.07;3.80;;;;;;;5.74;30.23;95445.91;5044481;28;20029;-75
2022/03/14 10:01:41;;;;;;;8.75;4.25;;;;;;;5.70;31.06;95442.16;5044565;28;20276;-76
2022/03/14 10:04:10;;;;;;;21.17;6.93;;;;;;;5.71;30.97;95441.94;5044593;28;20017;-75
2022/03/14 10:06:36;;;;;;;11.98;6.00;;;;;;;5.77;31.51;95440.94;5044327;28;20024;-76
2022/03/14 10:09:03;;;;;;;11.05;5.57;;;;;;;5.88;31.71;95446.38;5044245;28;20017;-75
2022/03/14 10:11:29;;;;;;;8.43;4.60;;;;;;;6.00;31.80;95441.81;5043564;28;20075;-75
2022/03/14 10:13:55;;;;;;;7.95;3.88;;;;;;;6.12;31.46;95444.34;5044292;28;20017;-75
2022/03/14 10:16:20;;;;;;;8.40;4.32;;;;;;;6.23;30.64;95444.22;5026775;28;20216;-75
2022/03/14 10:18:55;;;;;;;15.30;7.00;;;;;;;6.32;30.71;95430.56;5044355;28;20021;-77
2022/03/14 10:21:33;;;;;;;19.33;7.78;;;;;;;6.42;30.15;95433.31;5044428;28;20027;-76
2022/03/14 10:24:01;;;;;;;8.82;4.00;;;;;;;6.42;28.94;95433.31;5044225;28;20025;-77
2022/03/14 10:26:27;;;;;;;14.30;4.03;;;;;;;6.48;29.02;95431.53;5044308;28;20029;-76
2022/03/14 10:28:57;;;;;;;16.60;6.32;;;;;;;6.55;29.46;95432.91;5044155;28;20334;-75
2022/03/14 10:31:29;;;;;;;11.50;5.95;;;;;;;6.63;28.75;95429.84;5043963;28;20187;-78
2022/03/14 10:34:09;;;;;;;10.27;4.10;;;;;;;6.65;28.88;95420.84;5044142;28;20229;-77
2022/03/14 10:36:43;;;;;;;8.35;4.43;;;;;;;6.65;29.24;95424.28;5043954;28;20260;-78
2022/03/14 10:39:32;;;;;;;10.02;4.80;;;;;;;6.73;29.45;95417.75;5043850;28;20025;-76
2022/03/14 10:42:10;;;;;;;10.30;3.97;;;;;;;6.80;29.90;95419.16;5043758;28;20021;-76
2022/03/14 10:44:38;;;;;;;9.15;3.65;;;;;;;6.85;30.02;95418.38;5042636;28;20052;-76
2022/03/14 10:47:06;;;;;;;9.15;4.53;;;;;;;6.96;29.62;95425.41;5043881;28;20104;-77
2022/03/14 10:49:37;;;;;;;8.35;3.83;;;;;;;7.06;29.34;95421.22;5043718;28;20227;-77
2022/03/14 10:52:18;;;;;;;6.35;3.53;;;;;;;7.11;28.66;95414.13;5043592;28;20254;-76
2022/03/14 10:54:44;;;;;;;7.35;3.97;;;;;;;7.16;29.34;95408.84;5043849;28;20159;-77
2022/03/14 10:57:16;;;;;;;8.45;3.65;;;;;;;7.19;29.21;95415.50;5043563;28;20021;-77
2022/03/14 10:59:50;;;;;;;10.05;4.13;;;;;;;7.18;29.60;95414.69;5043624;28;20072;-77
2022/03/14 11:02:21;;;;;;;11.98;4.53;;;;;;;7.25;29.80;95414.50;5043413;28;20216;-77
2022/03/14 11:04:54;;;;;;;10.60;4.10;;;;;;;7.31;29.52;95416.13;5043348;28;20071;-77
2022/03/14 11:07:24;;;;;;;8.82;4.53;;;;;;;7.35;29.71;95419.09;5043375;28;20048;-77
2022/03/14 11:09:51;;;;;;;8.85;4.10;;;;;;;7.40;29.30;95417.25;5042929;28;20316;-79
2022/03/14 11:12:22;;;;;;;10.35;3.70;;;;;;;7.51;29.95;95420.78;5043380;28;20040;-79
2022/03/14 11:15:00;;;;;;;13.93;3.70;;;;;;;7.60;29.27;95413.94;5043358;28;20040;-79
2022/03/14 11:17:30;;;;;;;8.60;3.78;;;;;;;7.69;29.07;95414.25;5043412;28;20433;-80
2022/03/14 11:19:58;;;;;;;9.93;4.35;;;;;;;7.78;28.56;95406.63;5025569;28;20022;-80